sensor_id;sensor_type;location;lat;lon;timestamp;pressure;altitude;pressure_sealevel;temperature;humidity
84661;BME280;74889;52.240;20.902;2024-03-02T00:01:10;99827.25;;;7.62;81.03
84661;BME280;74889;52.240;20.902;2024-03-02T00:03:37;99822.70;;;7.61;81.07
84661;BME280;74889;52.240;20.902;2024-03-02T00:06:04;99815.60;;;7.59;81.10
84661;BME280;74889;52.240;20.902;2024-03-02T00:08:30;99818.15;;;7.58;81.27
84661;BME280;74889;52.240;20.902;2024-03-02T00:10:59;99818.61;;;7.57;81.21
84661;BME280;74889;52.240;20.902;2024-03-02T00:13:26;99812.45;;;7.56;81.34
84661;BME280;74889;52.240;20.902;2024-03-02T00:15:54;99808.05;;;7.56;81.30
84661;BME280;74889;52.240;20.902;2024-03-02T00:20:55;99807.98;;;7.53;81.26
84661;BME280;74889;52.240;20.902;2024-03-02T00:23:24;99808.92;;;7.50;81.27
84661;BME280;74889;52.240;20.902;2024-03-02T00:25:53;99807.83;;;7.47;81.43
84661;BME280;74889;52.240;20.902;2024-03-02T00:28:20;99807.37;;;7.45;81.50
84661;BME280;74889;52.240;20.902;2024-03-02T00:33:49;99806.09;;;7.44;81.44
84661;BME280;74889;52.240;20.902;2024-03-02T00:36:17;99806.38;;;7.43;81.53
84661;BME280;74889;52.240;20.902;2024-03-02T00:38:47;99801.77;;;7.41;81.45
84661;BME280;74889;52.240;20.902;2024-03-02T00:41:29;99802.84;;;7.39;81.47
84661;BME280;74889;52.240;20.902;2024-03-02T00:46:33;99803.19;;;7.35;81.42
84661;BME280;74889;52.240;20.902;2024-03-02T00:49:04;99809.47;;;7.34;81.41
84661;BME280;74889;52.240;20.902;2024-03-02T00:51:33;99813.03;;;7.33;81.49
84661;BME280;74889;52.240;20.902;2024-03-02T00:54:03;99814.70;;;7.30;81.52
84661;BME280;74889;52.240;20.902;2024-03-02T00:56:30;99816.02;;;7.29;81.51
84661;BME280;74889;52.240;20.902;2024-03-02T00:58:55;99817.13;;;7.29;81.60
84661;BME280;74889;52.240;20.902;2024-03-02T01:01:22;99815.16;;;7.29;81.61
84661;BME280;74889;52.240;20.902;2024-03-02T01:03:48;99814.49;;;7.28;81.61
84661;BME280;74889;52.240;20.902;2024-03-02T01:06:15;99812.07;;;7.28;81.63
84661;BME280;74889;52.240;20.902;2024-03-02T01:08:41;99809.24;;;7.27;81.66
84661;BME280;74889;52.240;20.902;2024-03-02T01:11:08;99803.60;;;7.27;81.80
84661;BME280;74889;52.240;20.902;2024-03-02T01:13:33;99796.55;;;7.26;81.73
84661;BME280;74889;52.240;20.902;2024-03-02T01:16:00;99800.17;;;7.25;81.94
84661;BME280;74889;52.240;20.902;2024-03-02T01:18:26;99802.79;;;7.24;81.90
84661;BME280;74889;52.240;20.902;2024-03-02T01:20:53;99800.27;;;7.23;81.86
84661;BME280;74889;52.240;20.902;2024-03-02T01:23:22;99800.17;;;7.22;81.99
84661;BME280;74889;52.240;20.902;2024-03-02T01:25:49;99806.09;;;7.21;81.89
84661;BME280;74889;52.240;20.902;2024-03-02T01:28:16;99800.39;;;7.19;81.94
84661;BME280;74889;52.240;20.902;2024-03-02T01:30:41;99804.09;;;7.18;82.00
84661;BME280;74889;52.240;20.902;2024-03-02T01:33:07;99799.48;;;7.15;81.92
84661;BME280;74889;52.240;20.902;2024-03-02T01:35:33;99794.48;;;7.14;82.06
84661;BME280;74889;52.240;20.902;2024-03-02T01:38:01;99794.46;;;7.12;82.03
84661;BME280;74889;52.240;20.902;2024-03-02T01:40:27;99788.54;;;7.11;82.11
84661;BME280;74889;52.240;20.902;2024-03-02T01:42:54;99785.25;;;7.10;82.02
84661;BME280;74889;52.240;20.902;2024-03-02T01:45:21;99783.84;;;7.08;82.19
84661;BME280;74889;52.240;20.902;2024-03-02T01:47:47;99776.64;;;7.07;82.10
84661;BME280;74889;52.240;20.902;2024-03-02T01:50:13;99776.71;;;7.06;82.19
84661;BME280;74889;52.240;20.902;2024-03-02T01:52:39;99778.45;;;7.05;82.09
84661;BME280;74889;52.240;20.902;2024-03-02T01:55:05;99775.60;;;7.03;82.15
84661;BME280;74889;52.240;20.902;2024-03-02T01:57:32;99773.02;;;6.98;82.17
84661;BME280;74889;52.240;20.902;2024-03-02T01:59:58;99776.77;;;6.98;82.30
84661;BME280;74889;52.240;20.902;2024-03-02T02:02:23;99774.69;;;6.97;82.32
84661;BME280;74889;52.240;20.902;2024-03-02T02:04:50;99769.89;;;6.94;82.40
84661;BME280;74889;52.240;20.902;2024-03-02T02:07:17;99770.90;;;6.90;82.42
84661;BME280;74889;52.240;20.902;2024-03-02T02:09:42;99774.45;;;6.89;82.51
84661;BME280;74889;52.240;20.902;2024-03-02T02:12:10;99775.33;;;6.89;82.61
84661;BME280;74889;52.240;20.902;2024-03-02T02:14:36;99777.30;;;6.88;82.57
84661;BME280;74889;52.240;20.902;2024-03-02T02:17:03;99776.40;;;6.87;82.71
84661;BME280;74889;52.240;20.902;2024-03-02T02:19:28;99772.15;;;6.86;82.71
84661;BME280;74889;52.240;20.902;2024-03-02T02:21:55;99768.42;;;6.84;82.78
84661;BME280;74889;52.240;20.902;2024-03-02T02:24:20;99764.60;;;6.84;82.77
84661;BME280;74889;52.240;20.902;2024-03-02T02:26:46;99767.86;;;6.83;82.75
84661;BME280;74889;52.240;20.902;2024-03-02T02:29:11;99759.73;;;6.83;82.87
84661;BME280;74889;52.240;20.902;2024-03-02T02:31:40;99762.45;;;6.82;83.01
84661;BME280;74889;52.240;20.902;2024-03-02T02:34:06;99763.43;;;6.81;83.18
84661;BME280;74889;52.240;20.902;2024-03-02T02:36:37;99764.69;;;6.83;83.15
84661;BME280;74889;52.240;20.902;2024-03-02T02:39:05;99758.98;;;6.83;83.27
84661;BME280;74889;52.240;20.902;2024-03-02T02:41:34;99754.45;;;6.82;83.28
84661;BME280;74889;52.240;20.902;2024-03-02T02:44:00;99752.73;;;6.81;83.23
84661;BME280;74889;52.240;20.902;2024-03-02T02:46:26;99755.31;;;6.80;83.31
84661;BME280;74889;52.240;20.902;2024-03-02T02:48:52;99751.61;;;6.78;83.40
84661;BME280;74889;52.240;20.902;2024-03-02T02:51:19;99749.45;;;6.78;83.49
84661;BME280;74889;52.240;20.902;2024-03-02T02:53:44;99747.43;;;6.77;83.58
84661;BME280;74889;52.240;20.902;2024-03-02T02:56:10;99748.08;;;6.76;83.53
84661;BME280;74889;52.240;20.902;2024-03-02T02:58:35;99746.17;;;6.73;83.67
84661;BME280;74889;52.240;20.902;2024-03-02T03:01:01;99745.50;;;6.73;83.74
84661;BME280;74889;52.240;20.902;2024-03-02T03:03:27;99741.71;;;6.72;83.61
84661;BME280;74889;52.240;20.902;2024-03-02T03:05:52;99742.14;;;6.71;83.71
84661;BME280;74889;52.240;20.902;2024-03-02T03:08:19;99740.46;;;6.70;83.68
84661;BME280;74889;52.240;20.902;2024-03-02T03:10:45;99740.52;;;6.69;83.75
84661;BME280;74889;52.240;20.902;2024-03-02T03:13:12;99736.34;;;6.68;83.61
84661;BME280;74889;52.240;20.902;2024-03-02T03:15:39;99736.50;;;6.66;83.81
84661;BME280;74889;52.240;20.902;2024-03-02T03:18:04;99733.16;;;6.64;83.85
84661;BME280;74889;52.240;20.902;2024-03-02T03:20:30;99736.49;;;6.64;83.80
84661;BME280;74889;52.240;20.902;2024-03-02T03:22:57;99741.20;;;6.63;83.85
84661;BME280;74889;52.240;20.902;2024-03-02T03:25:23;99741.94;;;6.61;83.73
84661;BME280;74889;52.240;20.902;2024-03-02T03:27:50;99743.98;;;6.60;83.70
84661;BME280;74889;52.240;20.902;2024-03-02T03:30:18;99739.68;;;6.57;83.53
84661;BME280;74889;52.240;20.902;2024-03-02T03:32:45;99738.21;;;6.55;83.69
84661;BME280;74889;52.240;20.902;2024-03-02T03:35:10;99736.27;;;6.53;83.88
84661;BME280;74889;52.240;20.902;2024-03-02T03:37:38;99736.64;;;6.51;83.82
84661;BME280;74889;52.240;20.902;2024-03-02T03:40:03;99736.38;;;6.50;83.96
84661;BME280;74889;52.240;20.902;2024-03-02T03:42:36;99738.60;;;6.47;83.84
84661;BME280;74889;52.240;20.902;2024-03-02T03:45:02;99737.17;;;6.45;83.93
84661;BME280;74889;52.240;20.902;2024-03-02T03:47:29;99739.41;;;6.44;83.99
84661;BME280;74889;52.240;20.902;2024-03-02T03:49:57;99738.92;;;6.42;84.04
84661;BME280;74889;52.240;20.902;2024-03-02T03:52:23;99737.59;;;6.41;84.03
84661;BME280;74889;52.240;20.902;2024-03-02T03:54:49;99732.55;;;6.40;83.99
84661;BME280;74889;52.240;20.902;2024-03-02T03:57:14;99722.87;;;6.38;84.11
84661;BME280;74889;52.240;20.902;2024-03-02T03:59:40;99722.80;;;6.35;84.21
84661;BME280;74889;52.240;20.902;2024-03-02T04:02:05;99729.70;;;6.34;84.36
84661;BME280;74889;52.240;20.902;2024-03-02T04:04:32;99731.36;;;6.33;84.40
84661;BME280;74889;52.240;20.902;2024-03-02T04:06:59;99733.10;;;6.33;84.35
84661;BME280;74889;52.240;20.902;2024-03-02T04:09:24;99727.65;;;6.31;84.45
84661;BME280;74889;52.240;20.902;2024-03-02T04:11:50;99728.88;;;6.29;84.60
84661;BME280;74889;52.240;20.902;2024-03-02T04:14:19;99733.80;;;6.28;84.75
84661;BME280;74889;52.240;20.902;2024-03-02T04:16:45;99738.10;;;6.27;84.84
84661;BME280;74889;52.240;20.902;2024-03-02T04:19:10;99739.77;;;6.26;84.86
84661;BME280;74889;52.240;20.902;2024-03-02T04:21:36;99739.98;;;6.26;84.91
84661;BME280;74889;52.240;20.902;2024-03-02T04:24:02;99745.23;;;6.27;84.78
84661;BME280;74889;52.240;20.902;2024-03-02T04:26:28;99740.70;;;6.26;84.75
84661;BME280;74889;52.240;20.902;2024-03-02T04:28:54;99741.92;;;6.24;84.93
84661;BME280;74889;52.240;20.902;2024-03-02T04:31:21;99742.52;;;6.22;84.75
84661;BME280;74889;52.240;20.902;2024-03-02T04:33:46;99752.40;;;6.20;84.99
84661;BME280;74889;52.240;20.902;2024-03-02T04:36:13;99741.53;;;6.18;84.94
84661;BME280;74889;52.240;20.902;2024-03-02T04:38:39;99737.75;;;6.17;85.14
84661;BME280;74889;52.240;20.902;2024-03-02T04:41:05;99736.11;;;6.16;85.07
84661;BME280;74889;52.240;20.902;2024-03-02T04:43:35;99735.84;;;6.15;85.12
84661;BME280;74889;52.240;20.902;2024-03-02T04:46:01;99736.42;;;6.14;85.07
84661;BME280;74889;52.240;20.902;2024-03-02T04:48:28;99737.40;;;6.13;85.32
84661;BME280;74889;52.240;20.902;2024-03-02T04:50:53;99743.64;;;6.13;85.41
84661;BME280;74889;52.240;20.902;2024-03-02T04:53:20;99744.63;;;6.10;85.13
84661;BME280;74889;52.240;20.902;2024-03-02T04:55:45;99736.15;;;6.07;85.29
84661;BME280;74889;52.240;20.902;2024-03-02T04:58:31;99735.73;;;6.06;85.35
84661;BME280;74889;52.240;20.902;2024-03-02T05:00:57;99733.84;;;6.05;85.50
84661;BME280;74889;52.240;20.902;2024-03-02T05:03:23;99736.30;;;6.04;85.69
84661;BME280;74889;52.240;20.902;2024-03-02T05:05:49;99740.93;;;6.03;85.49
84661;BME280;74889;52.240;20.902;2024-03-02T05:08:15;99741.31;;;6.03;85.47
84661;BME280;74889;52.240;20.902;2024-03-02T05:10:43;99743.59;;;6.04;85.58
84661;BME280;74889;52.240;20.902;2024-03-02T05:13:10;99749.18;;;6.03;85.70
84661;BME280;74889;52.240;20.902;2024-03-02T05:15:35;99748.02;;;6.02;85.84
84661;BME280;74889;52.240;20.902;2024-03-02T05:18:01;99761.45;;;6.02;85.79
84661;BME280;74889;52.240;20.902;2024-03-02T05:20:30;99759.92;;;6.04;85.87
84661;BME280;74889;52.240;20.902;2024-03-02T05:22:56;99758.23;;;6.02;85.62
84661;BME280;74889;52.240;20.902;2024-03-02T05:25:21;99758.56;;;6.01;85.86
84661;BME280;74889;52.240;20.902;2024-03-02T05:27:48;99765.96;;;6.02;86.11
84661;BME280;74889;52.240;20.902;2024-03-02T05:30:14;99767.05;;;6.01;86.10
84661;BME280;74889;52.240;20.902;2024-03-02T05:32:40;99771.46;;;6.02;86.11
84661;BME280;74889;52.240;20.902;2024-03-02T05:35:06;99777.48;;;6.02;86.12
84661;BME280;74889;52.240;20.902;2024-03-02T05:37:32;99770.19;;;6.00;86.04
84661;BME280;74889;52.240;20.902;2024-03-02T05:39:59;99766.64;;;5.96;86.34
84661;BME280;74889;52.240;20.902;2024-03-02T05:42:25;99770.41;;;5.99;86.37
84661;BME280;74889;52.240;20.902;2024-03-02T05:44:53;99776.13;;;5.99;86.62
84661;BME280;74889;52.240;20.902;2024-03-02T05:47:19;99778.33;;;5.98;86.36
84661;BME280;74889;52.240;20.902;2024-03-02T05:49:45;99783.59;;;5.99;86.37
84661;BME280;74889;52.240;20.902;2024-03-02T05:52:10;99788.64;;;6.00;86.52
84661;BME280;74889;52.240;20.902;2024-03-02T05:54:38;99784.85;;;6.01;86.48
84661;BME280;74889;52.240;20.902;2024-03-02T05:57:04;99792.02;;;6.02;86.46
84661;BME280;74889;52.240;20.902;2024-03-02T05:59:46;99793.38;;;6.02;86.46
84661;BME280;74889;52.240;20.902;2024-03-02T06:02:11;99782.45;;;6.02;86.62
84661;BME280;74889;52.240;20.902;2024-03-02T06:04:38;99783.30;;;6.02;86.64
84661;BME280;74889;52.240;20.902;2024-03-02T06:07:04;99784.53;;;6.02;86.71
84661;BME280;74889;52.240;20.902;2024-03-02T06:09:29;99792.39;;;6.04;86.78
84661;BME280;74889;52.240;20.902;2024-03-02T06:11:55;99797.27;;;6.05;86.66
84661;BME280;74889;52.240;20.902;2024-03-02T06:14:20;99792.14;;;6.04;86.89
84661;BME280;74889;52.240;20.902;2024-03-02T06:16:47;99797.80;;;6.04;86.93
84661;BME280;74889;52.240;20.902;2024-03-02T06:19:12;99802.88;;;6.05;86.72
84661;BME280;74889;52.240;20.902;2024-03-02T06:21:38;99797.02;;;6.04;87.09
84661;BME280;74889;52.240;20.902;2024-03-02T06:24:03;99801.73;;;6.04;86.94
84661;BME280;74889;52.240;20.902;2024-03-02T06:26:30;99802.38;;;6.05;87.07
84661;BME280;74889;52.240;20.902;2024-03-02T06:28:58;99805.70;;;6.05;86.97
84661;BME280;74889;52.240;20.902;2024-03-02T06:31:24;99809.14;;;6.07;87.07
84661;BME280;74889;52.240;20.902;2024-03-02T06:33:50;99810.91;;;6.09;86.88
84661;BME280;74889;52.240;20.902;2024-03-02T06:36:17;99812.90;;;6.11;87.08
84661;BME280;74889;52.240;20.902;2024-03-02T06:38:42;99815.90;;;6.13;87.06
84661;BME280;74889;52.240;20.902;2024-03-02T06:41:09;99820.16;;;6.15;87.02
84661;BME280;74889;52.240;20.902;2024-03-02T06:43:35;99819.86;;;6.16;87.07
84661;BME280;74889;52.240;20.902;2024-03-02T06:46:01;99824.46;;;6.18;87.10
84661;BME280;74889;52.240;20.902;2024-03-02T06:48:28;99828.84;;;6.19;87.20
84661;BME280;74889;52.240;20.902;2024-03-02T06:50:55;99829.92;;;6.21;87.18
84661;BME280;74889;52.240;20.902;2024-03-02T06:53:21;99823.40;;;6.22;87.35
84661;BME280;74889;52.240;20.902;2024-03-02T06:55:48;99818.65;;;6.22;86.99
84661;BME280;74889;52.240;20.902;2024-03-02T06:58:14;99822.55;;;6.24;87.08
84661;BME280;74889;52.240;20.902;2024-03-02T07:00:44;99825.36;;;6.26;87.09
84661;BME280;74889;52.240;20.902;2024-03-02T07:03:09;99821.96;;;6.26;87.00
84661;BME280;74889;52.240;20.902;2024-03-02T07:05:35;99825.84;;;6.29;87.22
84661;BME280;74889;52.240;20.902;2024-03-02T07:08:01;99829.40;;;6.30;87.27
84661;BME280;74889;52.240;20.902;2024-03-02T07:10:29;99818.42;;;6.30;87.00
84661;BME280;74889;52.240;20.902;2024-03-02T07:12:54;99816.63;;;6.31;87.05
84661;BME280;74889;52.240;20.902;2024-03-02T07:15:20;99819.97;;;6.31;87.20
84661;BME280;74889;52.240;20.902;2024-03-02T07:18:05;99818.52;;;6.31;87.08
84661;BME280;74889;52.240;20.902;2024-03-02T07:20:30;99821.52;;;6.34;87.12
84661;BME280;74889;52.240;20.902;2024-03-02T07:22:56;99825.20;;;6.36;87.02
84661;BME280;74889;52.240;20.902;2024-03-02T07:25:23;99826.63;;;6.38;87.24
84661;BME280;74889;52.240;20.902;2024-03-02T07:27:50;99833.63;;;6.41;87.12
84661;BME280;74889;52.240;20.902;2024-03-02T07:30:16;99836.45;;;6.43;87.05
84661;BME280;74889;52.240;20.902;2024-03-02T07:32:42;99838.19;;;6.46;87.15
84661;BME280;74889;52.240;20.902;2024-03-02T07:35:12;99828.92;;;6.46;87.09
84661;BME280;74889;52.240;20.902;2024-03-02T07:37:38;99830.02;;;6.48;86.93
84661;BME280;74889;52.240;20.902;2024-03-02T07:40:04;99833.31;;;6.48;86.92
84661;BME280;74889;52.240;20.902;2024-03-02T07:42:30;99835.26;;;6.49;87.02
84661;BME280;74889;52.240;20.902;2024-03-02T07:44:55;99834.82;;;6.49;86.85
84661;BME280;74889;52.240;20.902;2024-03-02T07:47:22;99829.41;;;6.52;86.91
84661;BME280;74889;52.240;20.902;2024-03-02T07:49:47;99835.81;;;6.54;86.83
84661;BME280;74889;52.240;20.902;2024-03-02T07:52:13;99842.97;;;6.56;86.75
84661;BME280;74889;52.240;20.902;2024-03-02T07:54:38;99841.06;;;6.57;86.81
84661;BME280;74889;52.240;20.902;2024-03-02T07:57:04;99843.30;;;6.60;86.79
84661;BME280;74889;52.240;20.902;2024-03-02T07:59:30;99848.93;;;6.60;86.73
84661;BME280;74889;52.240;20.902;2024-03-02T08:01:55;99852.41;;;6.61;86.76
84661;BME280;74889;52.240;20.902;2024-03-02T08:04:21;99856.23;;;6.62;86.63
84661;BME280;74889;52.240;20.902;2024-03-02T08:06:46;99861.35;;;6.65;86.62
84661;BME280;74889;52.240;20.902;2024-03-02T08:09:12;99863.25;;;6.67;86.60
84661;BME280;74889;52.240;20.902;2024-03-02T08:11:38;99869.05;;;6.70;86.60
84661;BME280;74889;52.240;20.902;2024-03-02T08:14:04;99867.58;;;6.73;86.45
84661;BME280;74889;52.240;20.902;2024-03-02T08:16:29;99863.29;;;6.75;86.48
84661;BME280;74889;52.240;20.902;2024-03-02T08:18:56;99862.33;;;6.78;86.62
84661;BME280;74889;52.240;20.902;2024-03-02T08:21:24;99860.76;;;6.81;86.56
84661;BME280;74889;52.240;20.902;2024-03-02T08:23:50;99850.55;;;6.82;86.56
84661;BME280;74889;52.240;20.902;2024-03-02T08:26:16;99852.20;;;6.84;86.42
84661;BME280;74889;52.240;20.902;2024-03-02T08:28:41;99857.30;;;6.84;86.39
84661;BME280;74889;52.240;20.902;2024-03-02T08:31:09;99854.34;;;6.86;86.29
84661;BME280;74889;52.240;20.902;2024-03-02T08:33:35;99856.98;;;6.88;86.22
84661;BME280;74889;52.240;20.902;2024-03-02T08:36:01;99855.48;;;6.91;86.36
84661;BME280;74889;52.240;20.902;2024-03-02T08:38:27;99859.43;;;6.94;86.35
84661;BME280;74889;52.240;20.902;2024-03-02T08:40:53;99857.77;;;6.95;86.28
84661;BME280;74889;52.240;20.902;2024-03-02T08:43:20;99861.95;;;6.98;86.30
84661;BME280;74889;52.240;20.902;2024-03-02T08:45:46;99868.16;;;7.00;86.21
84661;BME280;74889;52.240;20.902;2024-03-02T08:48:13;99865.36;;;7.01;86.25
84661;BME280;74889;52.240;20.902;2024-03-02T08:50:40;99870.04;;;7.02;86.13
84661;BME280;74889;52.240;20.902;2024-03-02T08:53:06;99867.71;;;7.05;86.07
84661;BME280;74889;52.240;20.902;2024-03-02T08:55:31;99872.39;;;7.06;86.11
84661;BME280;74889;52.240;20.902;2024-03-02T08:57:57;99873.34;;;7.07;86.00
84661;BME280;74889;52.240;20.902;2024-03-02T09:00:23;99869.50;;;7.08;85.95
84661;BME280;74889;52.240;20.902;2024-03-02T09:02:49;99867.25;;;7.10;85.81
84661;BME280;74889;52.240;20.902;2024-03-02T09:05:16;99867.11;;;7.11;85.79
84661;BME280;74889;52.240;20.902;2024-03-02T09:07:42;99866.77;;;7.13;85.88
84661;BME280;74889;52.240;20.902;2024-03-02T09:10:08;99867.39;;;7.14;85.81
84661;BME280;74889;52.240;20.902;2024-03-02T09:12:34;99871.40;;;7.16;85.81
84661;BME280;74889;52.240;20.902;2024-03-02T09:15:02;99871.48;;;7.18;85.70
84661;BME280;74889;52.240;20.902;2024-03-02T09:17:31;99870.90;;;7.20;85.67
84661;BME280;74889;52.240;20.902;2024-03-02T09:19:57;99867.89;;;7.22;85.69
84661;BME280;74889;52.240;20.902;2024-03-02T09:22:22;99864.29;;;7.24;85.61
84661;BME280;74889;52.240;20.902;2024-03-02T09:24:48;99865.02;;;7.26;85.60
84661;BME280;74889;52.240;20.902;2024-03-02T09:27:15;99859.65;;;7.26;85.57
84661;BME280;74889;52.240;20.902;2024-03-02T09:29:40;99862.73;;;7.28;85.52
84661;BME280;74889;52.240;20.902;2024-03-02T09:32:08;99866.36;;;7.31;85.48
84661;BME280;74889;52.240;20.902;2024-03-02T09:34:37;99871.38;;;7.34;85.48
84661;BME280;74889;52.240;20.902;2024-03-02T09:37:03;99866.59;;;7.36;85.43
84661;BME280;74889;52.240;20.902;2024-03-02T09:39:30;99872.80;;;7.38;85.36
84661;BME280;74889;52.240;20.902;2024-03-02T09:41:58;99872.04;;;7.42;85.42
84661;BME280;74889;52.240;20.902;2024-03-02T09:44:25;99874.36;;;7.44;85.26
84661;BME280;74889;52.240;20.902;2024-03-02T09:46:52;99876.36;;;7.46;85.31
84661;BME280;74889;52.240;20.902;2024-03-02T09:49:18;99870.19;;;7.49;85.22
84661;BME280;74889;52.240;20.902;2024-03-02T09:51:48;99873.02;;;7.51;85.21
84661;BME280;74889;52.240;20.902;2024-03-02T09:54:15;99873.55;;;7.53;85.15
84661;BME280;74889;52.240;20.902;2024-03-02T09:56:41;99871.64;;;7.57;85.03
84661;BME280;74889;52.240;20.902;2024-03-02T09:59:08;99866.88;;;7.57;85.01
84661;BME280;74889;52.240;20.902;2024-03-02T10:01:35;99873.30;;;7.60;84.93
84661;BME280;74889;52.240;20.902;2024-03-02T10:04:01;99877.09;;;7.61;84.83
84661;BME280;74889;52.240;20.902;2024-03-02T10:06:28;99871.81;;;7.63;84.85
84661;BME280;74889;52.240;20.902;2024-03-02T10:08:55;99864.98;;;7.65;84.66
84661;BME280;74889;52.240;20.902;2024-03-02T10:11:29;99867.98;;;7.67;84.67
84661;BME280;74889;52.240;20.902;2024-03-02T10:14:13;99864.81;;;7.71;84.58
84661;BME280;74889;52.240;20.902;2024-03-02T10:16:43;99861.98;;;7.75;84.56
84661;BME280;74889;52.240;20.902;2024-03-02T10:19:21;99861.98;;;7.78;84.55
84661;BME280;74889;52.240;20.902;2024-03-02T10:21:51;99856.99;;;7.84;84.47
84661;BME280;74889;52.240;20.902;2024-03-02T10:24:18;99853.65;;;7.87;84.36
84661;BME280;74889;52.240;20.902;2024-03-02T10:26:45;99855.46;;;7.91;84.35
84661;BME280;74889;52.240;20.902;2024-03-02T10:29:11;99850.63;;;7.93;84.15
84661;BME280;74889;52.240;20.902;2024-03-02T10:31:39;99852.20;;;7.95;84.08
84661;BME280;74889;52.240;20.902;2024-03-02T10:34:05;99851.60;;;7.98;84.00
84661;BME280;74889;52.240;20.902;2024-03-02T10:36:33;99848.77;;;8.01;83.92
84661;BME280;74889;52.240;20.902;2024-03-02T10:39:04;99849.78;;;8.05;83.93
84661;BME280;74889;52.240;20.902;2024-03-02T10:41:35;99848.68;;;8.09;84.00
84661;BME280;74889;52.240;20.902;2024-03-02T10:44:08;99852.31;;;8.14;83.89
84661;BME280;74889;52.240;20.902;2024-03-02T10:46:37;99850.67;;;8.18;83.69
84661;BME280;74889;52.240;20.902;2024-03-02T10:49:05;99851.83;;;8.21;83.58
84661;BME280;74889;52.240;20.902;2024-03-02T10:51:33;99846.71;;;8.25;83.49
84661;BME280;74889;52.240;20.902;2024-03-02T10:54:00;99844.94;;;8.28;83.49
84661;BME280;74889;52.240;20.902;2024-03-02T10:56:40;99845.35;;;8.34;83.35
84661;BME280;74889;52.240;20.902;2024-03-02T10:59:17;99845.64;;;8.38;83.36
84661;BME280;74889;52.240;20.902;2024-03-02T11:01:48;99841.16;;;8.42;83.21
84661;BME280;74889;52.240;20.902;2024-03-02T11:04:21;99841.16;;;8.47;83.17
84661;BME280;74889;52.240;20.902;2024-03-02T11:06:50;99830.83;;;8.51;83.12
84661;BME280;74889;52.240;20.902;2024-03-02T11:09:22;99827.94;;;8.55;82.97
84661;BME280;74889;52.240;20.902;2024-03-02T11:12:09;99827.63;;;8.58;82.84
84661;BME280;74889;52.240;20.902;2024-03-02T11:14:40;99830.66;;;8.62;82.68
84661;BME280;74889;52.240;20.902;2024-03-02T11:17:10;99822.85;;;8.65;82.61
84661;BME280;74889;52.240;20.902;2024-03-02T11:19:38;99824.63;;;8.69;82.59
84661;BME280;74889;52.240;20.902;2024-03-02T11:22:04;99827.60;;;8.71;82.40
84661;BME280;74889;52.240;20.902;2024-03-02T11:24:31;99820.05;;;8.73;82.36
84661;BME280;74889;52.240;20.902;2024-03-02T11:27:02;99818.48;;;8.77;82.17
84661;BME280;74889;52.240;20.902;2024-03-02T11:32:14;99818.88;;;8.82;82.09
84661;BME280;74889;52.240;20.902;2024-03-02T11:34:41;99821.08;;;8.85;82.05
84661;BME280;74889;52.240;20.902;2024-03-02T11:37:12;99820.30;;;8.87;81.95
84661;BME280;74889;52.240;20.902;2024-03-02T11:39:39;99816.42;;;8.90;81.90
84661;BME280;74889;52.240;20.902;2024-03-02T11:42:07;99823.20;;;8.94;81.85
84661;BME280;74889;52.240;20.902;2024-03-02T11:44:35;99812.67;;;8.95;81.53
84661;BME280;74889;52.240;20.902;2024-03-02T11:47:02;99807.39;;;8.98;81.51
84661;BME280;74889;52.240;20.902;2024-03-02T11:49:45;99803.96;;;9.00;81.50
84661;BME280;74889;52.240;20.902;2024-03-02T11:52:12;99807.02;;;9.04;81.47
84661;BME280;74889;52.240;20.902;2024-03-02T11:54:41;99800.55;;;9.06;81.37
84661;BME280;74889;52.240;20.902;2024-03-02T11:57:19;99804.56;;;9.09;81.43
84661;BME280;74889;52.240;20.902;2024-03-02T11:59:47;99803.31;;;9.13;81.24
84661;BME280;74889;52.240;20.902;2024-03-02T12:02:21;99799.72;;;9.17;81.28
84661;BME280;74889;52.240;20.902;2024-03-02T12:04:49;99803.62;;;9.20;81.23
84661;BME280;74889;52.240;20.902;2024-03-02T12:07:20;99804.44;;;9.25;81.08
84661;BME280;74889;52.240;20.902;2024-03-02T12:09:47;99804.58;;;9.28;80.98
84661;BME280;74889;52.240;20.902;2024-03-02T12:12:13;99801.27;;;9.31;80.91
84661;BME280;74889;52.240;20.902;2024-03-02T12:14:51;99798.73;;;9.35;80.67
84661;BME280;74889;52.240;20.902;2024-03-02T12:17:17;99800.30;;;9.39;80.58
84661;BME280;74889;52.240;20.902;2024-03-02T12:19:43;99797.45;;;9.42;80.46
84661;BME280;74889;52.240;20.902;2024-03-02T12:22:09;99796.31;;;9.47;80.40
84661;BME280;74889;52.240;20.902;2024-03-02T12:24:36;99791.25;;;9.49;80.32
84661;BME280;74889;52.240;20.902;2024-03-02T12:27:03;99794.48;;;9.52;80.38
84661;BME280;74889;52.240;20.902;2024-03-02T12:29:30;99796.20;;;9.56;80.13
84661;BME280;74889;52.240;20.902;2024-03-02T12:31:55;99804.31;;;9.61;80.13
84661;BME280;74889;52.240;20.902;2024-03-02T12:34:22;99801.59;;;9.65;79.92
84661;BME280;74889;52.240;20.902;2024-03-02T12:36:49;99810.23;;;9.69;79.80
84661;BME280;74889;52.240;20.902;2024-03-02T12:39:19;99804.92;;;9.72;79.63
84661;BME280;74889;52.240;20.902;2024-03-02T12:41:46;99807.90;;;9.76;79.49
84661;BME280;74889;52.240;20.902;2024-03-02T12:44:13;99809.31;;;9.80;79.42
84661;BME280;74889;52.240;20.902;2024-03-02T12:46:39;99813.12;;;9.82;79.30
84661;BME280;74889;52.240;20.902;2024-03-02T12:49:08;99806.91;;;9.85;79.25
84661;BME280;74889;52.240;20.902;2024-03-02T12:51:39;99802.38;;;9.88;78.82
84661;BME280;74889;52.240;20.902;2024-03-02T12:54:09;99800.11;;;9.91;78.96
84661;BME280;74889;52.240;20.902;2024-03-02T12:56:37;99802.38;;;9.93;78.73
84661;BME280;74889;52.240;20.902;2024-03-02T12:59:07;99802.14;;;9.96;78.67
84661;BME280;74889;52.240;20.902;2024-03-02T13:01:32;99800.47;;;9.98;78.63
84661;BME280;74889;52.240;20.902;2024-03-02T13:03:58;99807.11;;;10.01;78.44
84661;BME280;74889;52.240;20.902;2024-03-02T13:06:26;99804.62;;;10.03;78.23
84661;BME280;74889;52.240;20.902;2024-03-02T13:08:54;99801.71;;;10.05;78.35
84661;BME280;74889;52.240;20.902;2024-03-02T13:11:22;99801.89;;;10.06;78.22